Time;durP1;ratioP1;P1;durP2;ratioP2;P2;SDS_P1;SDS_P2;PMS_P1;PMS_P2;Temp;Humidity;BMP_temperature;BMP_pressure;BME280_temperature;BME280_humidity;BME280_pressure;Samples;Min_cycle;Max_cycle;Signal;HPM_P1;HPM_P2
2022/04/19 00:01:47;;;;;;;;;;;;;;;5.32;59.96;99218.38;4864501;29;19931;-70
2022/04/19 00:04:18;;;;;;;;;;;;;;;5.39;59.34;99220.16;4864172;29;19931;-70
2022/04/19 00:06:47;;;;;;;;;;;;;;;5.41;58.90;99218.50;4864139;29;19931;-70
2022/04/19 00:09:17;;;;;;;;;;;;;;;5.45;58.21;99213.47;4864025;29;19931;-69
2022/04/19 00:11:45;;;;;;;;;;;;;;;5.53;58.10;99207.66;4864242;29;19924;-70
2022/04/19 00:14:14;;;;;;;;;;;;;;;5.61;58.17;99212.81;4864170;29;20347;-70
2022/04/19 00:16:42;;;;;;;;;;;;;;;5.56;58.62;99211.91;4847442;29;19928;-70
2022/04/19 00:19:12;;;;;;;;;;;;;;;5.55;58.62;99206.00;4847606;29;19953;-70
2022/04/19 00:21:41;;;;;;;;;;;;;;;5.58;58.54;99200.13;4864150;29;19924;-70
2022/04/19 00:24:09;;;;;;;;;;;;;;;5.61;58.46;99205.22;4863753;29;20018;-70
2022/04/19 00:26:38;;;;;;;;;;;;;;;5.55;58.72;99200.94;4863740;29;19931;-70
2022/04/19 00:29:07;;;;;;;;;;;;;;;5.43;59.25;99191.53;4847210;29;19924;-70
2022/04/19 00:31:35;;;;;;;;;;;;;;;5.29;59.70;99187.13;4863716;29;19928;-69
2022/04/19 00:34:04;;;;;;;;;;;;;;;5.17;60.27;99192.88;4831853;29;19924;-69
2022/04/19 00:36:35;;;;;;;;;;;;;;;5.10;60.95;99188.59;4863527;29;19934;-71
2022/04/19 00:39:03;;;;;;;;;;;;;;;4.98;61.19;99180.84;4846874;29;19932;-69
2022/04/19 00:41:32;;;;;;;;;;;;;;;4.90;61.96;99182.41;4863600;29;20363;-69
2022/04/19 00:44:00;;;;;;;;;;;;;;;4.89;61.85;99175.66;4846879;29;19963;-69
2022/04/19 00:46:29;;;;;;;;;;;;;;;4.86;61.99;99179.81;4863752;29;20371;-69
2022/04/19 00:48:59;;;;;;;;;;;;;;;4.87;62.10;99173.94;4863753;29;19924;-70
2022/04/19 00:51:31;;;;;;;;;;;;;;;4.87;61.49;99182.34;4831299;29;19924;-70
2022/04/19 00:54:01;;;;;;;;;;;;;;;4.87;61.61;99171.41;4847014;29;20367;-69
2022/04/19 00:56:30;;;;;;;;;;;;;;;4.87;61.06;99176.47;4846773;29;19976;-69
2022/04/19 00:58:59;;;;;;;;;;;;;;;4.93;60.36;99174.00;4831950;29;19924;-69
2022/04/19 01:01:28;;;;;;;;;;;;;;;5.02;60.11;99172.44;4846651;29;19976;-70
2022/04/19 01:03:58;;;;;;;;;;;;;;;5.17;60.20;99167.59;4846621;29;19924;-69
2022/04/19 01:06:27;;;;;;;;;;;;;;;5.25;59.63;99166.00;4846887;29;20379;-70
2022/04/19 01:08:56;;;;;;;;;;;;;;;5.35;58.79;99167.78;4846580;29;19972;-70
2022/04/19 01:14:11;;;;;;;;;;;;;;;5.49;57.06;99164.59;4846350;29;19924;-70
2022/04/19 01:16:41;;;;;;;;;;;;;;;5.54;56.85;99157.91;4846634;29;20295;-70
2022/04/19 01:19:14;;;;;;;;;;;;;;;5.57;56.88;99157.91;4846598;29;19946;-70
2022/04/19 01:21:48;;;;;;;;;;;;;;;5.57;57.06;99153.69;4846338;29;19928;-70
2022/04/19 01:24:25;;;;;;;;;;;;;;;5.59;56.95;99152.03;4846529;29;19924;-70
2022/04/19 01:26:56;;;;;;;;;;;;;;;5.60;57.38;99155.41;4846178;29;19924;-70
2022/04/19 01:29:26;;;;;;;;;;;;;;;5.54;56.90;99147.78;4846553;29;20344;-69
2022/04/19 01:31:55;;;;;;;;;;;;;;;5.53;56.96;99141.00;4846114;29;19992;-71
2022/04/19 01:34:24;;;;;;;;;;;;;;;5.51;57.47;99137.63;4846163;29;19934;-71
2022/04/19 01:37:00;;;;;;;;;;;;;;;5.43;57.65;99140.91;4845909;29;20352;-70
2022/04/19 01:42:09;;;;;;;;;;;;;;;5.21;58.77;99128.84;4845982;29;19931;-69
2022/04/19 01:44:44;;;;;;;;;;;;;;;5.21;59.15;99126.31;4845878;29;20011;-69
2022/04/19 01:47:13;;;;;;;;;;;;;;;5.23;59.04;99127.19;4862853;29;19981;-69
2022/04/19 01:49:46;;;;;;;;;;;;;;;5.20;59.18;99131.38;4845836;29;19963;-70
2022/04/19 01:52:17;;;;;;;;;;;;;;;5.21;58.88;99128.00;4862238;29;19931;-70
2022/04/19 01:54:49;;;;;;;;;;;;;;;5.15;58.68;99128.78;4845842;29;19924;-70
2022/04/19 01:57:27;;;;;;;;;;;;;;;5.06;58.68;99125.31;4862488;29;20358;-70
2022/04/19 01:59:56;;;;;;;;;;;;;;;5.10;58.02;99124.50;4845681;29;19924;-70
2022/04/19 02:02:44;;;;;;;;;;;;;;;4.97;58.08;99128.56;4861344;29;20006;-70
2022/04/19 02:05:17;;;;;;;;;;;;;;;4.75;58.76;99126.59;4845574;29;19923;-70
2022/04/19 02:07:48;;;;;;;;;;;;;;;4.64;58.81;99128.97;4845535;29;19924;-70
2022/04/19 02:10:18;;;;;;;;;;;;;;;4.56;59.73;99124.63;4862025;29;19924;-70
2022/04/19 02:12:51;;;;;;;;;;;;;;;4.39;60.25;99110.94;4845547;29;19928;-69
2022/04/19 02:15:31;;;;;;;;;;;;;;;4.27;60.46;99118.31;4861823;29;19963;-70
2022/04/19 02:18:11;;;;;;;;;;;;;;;4.23;60.68;99111.50;4862234;29;20279;-70
2022/04/19 02:20:43;;;;;;;;;;;;;;;4.18;60.98;99123.22;4845972;29;19931;-70
2022/04/19 02:23:14;;;;;;;;;;;;;;;4.15;60.86;99118.97;4862235;29;19924;-70
2022/04/19 02:25:43;;;;;;;;;;;;;;;4.11;61.35;99114.69;4845297;29;20264;-70
2022/04/19 02:28:14;;;;;;;;;;;;;;;4.04;61.40;99123.88;4845307;29;20023;-70
2022/04/19 02:30:48;;;;;;;;;;;;;;;4.06;61.89;99112.09;4845301;29;19928;-70
2022/04/19 02:33:24;;;;;;;;;;;;;;;4.18;61.73;99115.63;4845275;29;19924;-70
2022/04/19 02:35:53;;;;;;;;;;;;;;;4.23;61.87;99108.97;4845122;29;19989;-70
2022/04/19 02:38:24;;;;;;;;;;;;;;;4.31;61.34;99107.44;4844860;29;19932;-70
2022/04/19 02:40:53;;;;;;;;;;;;;;;4.39;61.56;99115.97;4861636;29;19924;-70
2022/04/19 02:43:22;;;;;;;;;;;;;;;4.45;61.88;99104.28;4845136;29;19974;-70
2022/04/19 02:45:54;;;;;;;;;;;;;;;4.46;61.16;99108.50;4845352;29;20387;-70
2022/04/19 02:48:30;;;;;;;;;;;;;;;4.43;61.24;99105.09;4845102;29;19976;-70
2022/04/19 02:51:00;;;;;;;;;;;;;;;4.39;61.90;99090.72;4845375;29;20286;-70
2022/04/19 02:53:32;;;;;;;;;;;;;;;4.33;61.70;99095.66;4861514;29;19924;-70
2022/04/19 02:56:03;;;;;;;;;;;;;;;4.34;61.89;99103.28;4861463;29;20375;-70
2022/04/19 02:58:33;;;;;;;;;;;;;;;4.40;61.37;99097.44;4845003;29;19979;-69
2022/04/19 03:01:02;;;;;;;;;;;;;;;4.45;61.53;99095.84;4844954;29;19924;-70
2022/04/19 03:03:30;;;;;;;;;;;;;;;4.45;61.34;99099.22;4845268;29;19923;-70
2022/04/19 03:05:59;;;;;;;;;;;;;;;4.44;60.87;99105.09;4845044;29;20363;-70
2022/04/19 03:08:34;;;;;;;;;;;;;;;4.42;61.03;99100.84;4845250;29;19931;-70
2022/04/19 03:11:03;;;;;;;;;;;;;;;4.35;61.09;99099.06;4844944;29;19947;-69
2022/04/19 03:13:32;;;;;;;;;;;;;;;4.23;61.45;99099.75;4846497;29;20336;-70
2022/04/19 03:16:03;;;;;;;;;;;;;;;4.16;61.62;99104.66;4864947;29;19963;-69
2022/04/19 03:18:32;;;;;;;;;;;;;;;4.11;62.59;99093.66;4849099;29;20065;-69
2022/04/19 03:21:02;;;;;;;;;;;;;;;4.03;63.03;99103.66;4833265;29;19923;-69
2022/04/19 03:28:53;;;;;;;;;;;;;;;3.73;63.97;99098.94;4848290;29;19947;-69
2022/04/19 03:31:23;;;;;;;;;;;;;;;3.55;63.26;99095.25;4848636;29;20022;-69
2022/04/19 03:33:54;;;;;;;;;;;;;;;3.39;63.59;99094.13;4864702;29;19958;-70
2022/04/19 03:36:25;;;;;;;;;;;;;;;3.34;64.07;99090.66;4848080;29;19927;-69
2022/04/19 03:38:58;;;;;;;;;;;;;;;3.22;64.77;99096.34;4848241;29;19927;-69
2022/04/19 03:41:28;;;;;;;;;;;;;;;3.14;64.56;99092.81;4864541;29;19955;-69
2022/04/19 03:43:57;;;;;;;;;;;;;;;3.15;64.67;99099.56;4847966;29;19973;-69
2022/04/19 03:46:27;;;;;;;;;;;;;;;3.03;65.69;99094.28;4848010;29;19961;-71
2022/04/19 03:48:56;;;;;;;;;;;;;;;2.90;65.81;99101.59;4848235;29;19924;-71
2022/04/19 03:51:25;;;;;;;;;;;;;;;2.92;65.96;99095.75;4848395;29;19924;-69
2022/04/19 03:53:54;;;;;;;;;;;;;;;2.97;66.34;99090.81;4847755;29;19924;-69
2022/04/19 03:56:24;;;;;;;;;;;;;;;2.90;66.15;99096.56;4864202;29;19953;-69
2022/04/19 03:58:53;;;;;;;;;;;;;;;2.82;66.58;99098.06;4847807;29;20375;-69
2022/04/19 04:01:21;;;;;;;;;;;;;;;2.81;66.15;99097.19;4848344;29;19924;-70
2022/04/19 04:03:51;;;;;;;;;;;;;;;2.77;66.61;99102.16;4847919;29;20359;-70
2022/04/19 04:06:20;;;;;;;;;;;;;;;2.70;67.36;99114.63;4847995;29;19924;-69
2022/04/19 04:08:49;;;;;;;;;;;;;;;2.73;67.73;99104.59;4847648;29;19924;-69
2022/04/19 04:11:20;;;;;;;;;;;;;;;2.69;66.83;99102.84;4832501;29;19924;-69
2022/04/19 04:14:00;;;;;;;;;;;;;;;2.68;67.88;99100.28;4847745;29;20377;-69
2022/04/19 04:16:29;;;;;;;;;;;;;;;2.77;67.92;99110.56;4863862;29;19974;-69
2022/04/19 04:18:58;;;;;;;;;;;;;;;2.83;67.89;99104.81;4847340;29;19928;-69
2022/04/19 04:21:28;;;;;;;;;;;;;;;2.89;67.70;99104.91;4847399;29;19925;-69
2022/04/19 04:23:57;;;;;;;;;;;;;;;2.89;68.03;99107.44;4847022;29;19934;-69
2022/04/19 04:26:51;;;;;;;;;;;;;;;2.92;67.25;99110.88;4863591;29;20007;-69
2022/04/19 04:29:30;;;;;;;;;;;;;;;2.88;67.00;99111.63;4847274;29;19923;-69
2022/04/19 04:31:58;;;;;;;;;;;;;;;2.83;67.26;99104.81;4863725;29;19932;-69
2022/04/19 04:34:28;;;;;;;;;;;;;;;2.81;67.88;99108.97;4846948;29;20405;-69
2022/04/19 04:36:57;;;;;;;;;;;;;;;2.80;68.10;99112.28;4846935;29;20022;-69
2022/04/19 04:39:26;;;;;;;;;;;;;;;2.90;67.84;99111.66;4863853;29;19932;-69
2022/04/19 04:42:17;;;;;;;;;;;;;;;2.97;67.70;99108.44;4862920;29;19924;-69
2022/04/19 04:44:47;;;;;;;;;;;;;;;3.09;68.21;99108.69;4846783;29;19976;-69
2022/04/19 04:49:56;;;;;;;;;;;;;;;3.22;66.96;99111.47;4847000;29;20022;-70
2022/04/19 04:52:26;;;;;;;;;;;;;;;3.23;66.88;99107.28;4847344;29;20276;-69
2022/04/19 04:54:57;;;;;;;;;;;;;;;3.26;67.06;99107.34;4847083;29;19935;-69
2022/04/19 04:57:33;;;;;;;;;;;;;;;3.29;67.35;99108.25;4831484;29;19976;-70
2022/04/19 05:00:03;;;;;;;;;;;;;;;3.37;67.54;99106.72;4863129;29;19924;-70
2022/04/19 05:02:53;;;;;;;;;;;;;;;3.46;67.02;99111.06;4862754;29;19924;-70
2022/04/19 05:05:22;;;;;;;;;;;;;;;3.62;66.73;99112.19;4863427;29;19924;-69
2022/04/19 05:07:55;;;;;;;;;;;;;;;3.74;67.10;99113.25;4846688;29;20415;-71
2022/04/19 05:10:26;;;;;;;;;;;;;;;3.88;66.40;99118.53;4846539;29;19924;-71
2022/04/19 05:12:55;;;;;;;;;;;;;;;4.03;66.69;99117.09;4846425;29;20015;-69
2022/04/19 05:15:28;;;;;;;;;;;;;;;4.31;65.80;99120.06;4846405;29;19928;-69
2022/04/19 05:17:57;;;;;;;;;;;;;;;4.41;65.06;99119.38;4862887;29;19980;-69
2022/04/19 05:20:26;;;;;;;;;;;;;;;4.49;64.10;99112.72;4846599;29;19934;-71
2022/04/19 05:22:56;;;;;;;;;;;;;;;4.60;63.64;99111.22;4846468;29;20371;-70
2022/04/19 05:25:26;;;;;;;;;;;;;;;4.72;62.90;99106.34;4846569;29;20359;-70
2022/04/19 05:27:56;;;;;;;;;;;;;;;4.77;62.70;99107.25;4846459;29;20398;-69
2022/04/19 05:30:25;;;;;;;;;;;;;;;4.76;61.70;99108.06;4846540;29;19951;-70
2022/04/19 05:32:56;;;;;;;;;;;;;;;4.84;61.96;99106.50;4846116;29;19979;-70
2022/04/19 05:35:24;;;;;;;;;;;;;;;4.90;61.97;99104.03;4862565;29;20421;-70
2022/04/19 05:37:54;;;;;;;;;;;;;;;4.99;61.56;99104.13;4862060;29;19931;-70
2022/04/19 05:40:23;;;;;;;;;;;;;;;5.01;61.19;99099.97;4846024;29;19927;-71
2022/04/19 05:42:52;;;;;;;;;;;;;;;4.97;61.33;99098.22;4845941;29;19963;-70
2022/04/19 05:45:21;;;;;;;;;;;;;;;4.97;60.90;99093.16;4846155;29;19980;-70
2022/04/19 05:47:50;;;;;;;;;;;;;;;5.01;61.00;99099.13;4846137;29;19957;-70
2022/04/19 05:50:20;;;;;;;;;;;;;;;5.11;61.02;99096.69;4845744;29;19959;-70
2022/04/19 05:52:49;;;;;;;;;;;;;;;5.22;60.08;99099.34;4846195;29;19992;-70
2022/04/19 05:55:19;;;;;;;;;;;;;;;5.29;59.83;99091.84;4845691;29;19924;-70
2022/04/19 05:57:48;;;;;;;;;;;;;;;5.31;59.27;99090.19;4846058;29;19976;-70
2022/04/19 06:00:19;;;;;;;;;;;;;;;5.36;59.40;99098.66;4845924;29;20382;-70
2022/04/19 06:05:34;;;;;;;;;;;;;;;5.50;58.78;99090.34;4846041;29;19924;-70
2022/04/19 06:08:02;;;;;;;;;;;;;;;5.55;58.60;99091.25;4862125;29;20015;-69
2022/04/19 06:10:31;;;;;;;;;;;;;;;5.63;58.27;99089.66;4845598;29;19930;-70
2022/04/19 06:13:00;;;;;;;;;;;;;;;5.79;58.31;99083.88;4845440;29;19924;-70
2022/04/19 06:15:29;;;;;;;;;;;;;;;5.95;58.32;99090.81;4845665;29;19924;-70
2022/04/19 06:17:57;;;;;;;;;;;;;;;6.15;57.97;99089.28;4861999;29;20374;-70
2022/04/19 06:20:38;;;;;;;;;;;;;;;6.45;58.14;99092.03;4862242;29;19930;-70
2022/04/19 06:23:07;;;;;;;;;;;;;;;6.74;57.82;99087.13;4845593;29;19935;-70
2022/04/19 06:25:36;;;;;;;;;;;;;;;6.99;57.38;99093.13;4830357;29;19931;-71
2022/04/19 06:28:06;;;;;;;;;;;;;;;7.23;56.66;99083.06;4845471;29;20291;-70
2022/04/19 06:30:57;;;;;;;;;;;;;;;7.40;55.36;99081.41;4835344;29;19963;-70
2022/04/19 06:33:27;;;;;;;;;;;;;;;7.35;55.21;99083.09;4845770;29;20256;-71
2022/04/19 06:35:57;;;;;;;;;;;;;;;7.49;55.23;99081.41;4829041;29;20396;-71
2022/04/19 06:38:25;;;;;;;;;;;;;;;7.61;55.17;99081.44;4854778;29;20294;-69
2022/04/19 06:40:55;;;;;;;;;;;;;;;7.70;54.92;99085.69;4860470;29;19928;-70
2022/04/19 06:43:23;;;;;;;;;;;;;;;7.75;54.50;99084.84;4853428;29;19924;-70
2022/04/19 06:45:57;;;;;;;;;;;;;;;7.70;54.56;99078.91;4842124;29;19951;-70
2022/04/19 06:48:29;;;;;;;;;;;;;;;7.87;54.10;99074.69;4845131;29;20288;-70
2022/04/19 06:51:00;;;;;;;;;;;;;;;7.89;52.98;99065.38;4849236;29;20023;-70
2022/04/19 06:53:49;;;;;;;;;;;;;;;7.68;53.41;99078.06;4836062;29;19928;-70
2022/04/19 06:56:38;;;;;;;;;;;;;;;7.72;54.88;99073.84;4848792;29;20420;-70
2022/04/19 06:59:08;;;;;;;;;;;;;;;7.77;54.53;99078.09;4849401;29;20018;-70
2022/04/19 07:01:40;;;;;;;;;;;;;;;7.76;53.21;99071.31;4849111;29;20015;-69
2022/04/19 07:04:30;;;;;;;;;;;;;;;7.74;54.02;99070.47;4849177;29;19924;-70
2022/04/19 07:07:03;;;;;;;;;;;;;;;7.79;54.02;99066.25;4847959;29;19928;-70
2022/04/19 07:09:32;;;;;;;;;;;;;;;7.89;53.44;99062.00;4848213;29;19924;-70
2022/04/19 07:12:02;;;;;;;;;;;;;;;8.05;53.26;99067.06;4831181;29;20000;-70
2022/04/19 07:14:35;;;;;;;;;;;;;;;8.33;53.26;99055.19;4827052;29;19931;-71
2022/04/19 07:17:15;;;;;;;;;;;;;;;8.62;51.70;99052.56;4845450;29;19924;-71
2022/04/19 07:27:51;;;;;;;;;;;;;;;9.22;47.73;99057.41;4859103;29;19972;-70
2022/04/19 07:30:27;;;;;;;;;;;;;;;9.32;46.94;99053.97;4866320;29;19924;-71
2022/04/19 07:32:56;;;;;;;;;;;;;;;9.68;46.58;99052.88;4866452;29;19931;-70
2022/04/19 07:35:27;;;;;;;;;;;;;;;9.85;45.79;99052.75;4841723;29;19960;-72
2022/04/19 07:37:57;;;;;;;;;;;;;;;10.01;45.65;99044.94;4846399;29;20395;-71
2022/04/19 07:40:37;;;;;;;;;;;;;;;10.18;45.38;99042.28;4858239;29;19946;-71
2022/04/19 07:43:07;;;;;;;;;;;;;;;10.27;44.61;99044.72;4857624;29;19928;-72
2022/04/19 07:45:36;;;;;;;;;;;;;;;10.39;44.08;99042.06;4849135;29;19930;-72
2022/04/19 07:48:06;;;;;;;;;;;;;;;10.48;43.94;99038.59;4845810;29;19967;-72
2022/04/19 07:50:35;;;;;;;;;;;;;;;10.59;43.51;99041.84;4839373;29;19925;-72
2022/04/19 07:53:05;;;;;;;;;;;;;;;10.51;43.15;99036.84;4819165;29;19924;-71
2022/04/19 07:55:34;;;;;;;;;;;;;;;10.66;42.89;99036.66;4842798;29;20363;-71
2022/04/19 07:58:02;;;;;;;;;;;;;;;10.68;42.17;99037.50;4847392;29;19960;-71
2022/04/19 08:00:34;;;;;;;;;;;;;;;10.82;41.73;99033.94;4845446;29;19924;-71
2022/04/19 08:03:03;;;;;;;;;;;;;;;10.90;40.73;99032.13;4844779;29;19947;-71
2022/04/19 08:05:32;;;;;;;;;;;;;;;11.05;41.13;99031.94;4829442;29;19925;-70
2022/04/19 08:08:01;;;;;;;;;;;;;;;11.27;41.31;99034.19;4844909;29;19932;-71
2022/04/19 08:10:31;;;;;;;;;;;;;;;11.53;40.99;99028.69;4845860;29;19976;-70
2022/04/19 08:13:04;;;;;;;;;;;;;;;11.42;40.95;99022.91;4844714;29;19931;-70
2022/04/19 08:15:33;;;;;;;;;;;;;;;11.48;40.26;99027.91;4844470;29;19925;-71
2022/04/19 08:18:07;;;;;;;;;;;;;;;11.52;39.67;99034.66;4844305;29;19924;-71
2022/04/19 08:20:37;;;;;;;;;;;;;;;11.66;39.65;99022.50;4845475;29;19925;-70
2022/04/19 08:23:07;;;;;;;;;;;;;;;11.75;39.69;99017.31;4845440;29;19997;-71
2022/04/19 08:25:38;;;;;;;;;;;;;;;11.70;38.95;99026.75;4844297;29;19994;-70
2022/04/19 08:28:08;;;;;;;;;;;;;;;11.65;38.77;99025.94;4843991;29;20379;-71
2022/04/19 08:30:37;;;;;;;;;;;;;;;11.81;39.02;99022.31;4843612;29;19932;-71
2022/04/19 08:33:09;;;;;;;;;;;;;;;11.79;38.44;99018.09;4843576;29;20272;-71
2022/04/19 08:35:38;;;;;;;;;;;;;;;11.79;38.68;99013.81;4823576;29;19924;-71
2022/04/19 08:38:07;;;;;;;;;;;;;;;11.84;38.37;99017.16;4833445;29;19976;-70
2022/04/19 08:40:38;;;;;;;;;;;;;;;11.69;37.43;99012.28;4843850;29;20379;-70
2022/04/19 08:43:07;;;;;;;;;;;;;;;11.67;36.91;99006.31;4843967;29;19980;-69
2022/04/19 08:45:36;;;;;;;;;;;;;;;11.82;37.00;99013.78;4845705;29;20470;-70
2022/04/19 08:48:09;;;;;;;;;;;;;;;12.03;37.33;99012.56;4837816;29;19981;-69
2022/04/19 08:50:38;;;;;;;;;;;;;;;11.89;37.33;99005.13;4874320;29;20323;-69
2022/04/19 08:58:25;;;;;;;;;;;;;;;11.71;37.13;99012.28;4858075;29;20011;-70
2022/04/19 09:00:54;;;;;;;;;;;;;;;11.48;36.97;99011.72;4844705;29;20371;-69
2022/04/19 09:03:22;;;;;;;;;;;;;;;11.58;37.55;99014.13;4869363;29;19981;-69
2022/04/19 09:05:52;;;;;;;;;;;;;;;11.63;37.34;99017.47;4881891;29;19927;-70
2022/04/19 09:08:21;;;;;;;;;;;;;;;11.49;37.06;99011.72;4861045;29;20426;-70
2022/04/19 09:11:03;;;;;;;;;;;;;;;11.66;36.74;99012.28;4876932;29;20378;-69
2022/04/19 09:13:32;;;;;;;;;;;;;;;11.76;36.47;99005.34;4881806;29;20327;-69
2022/04/19 09:16:04;;;;;;;;;;;;;;;11.83;37.27;99010.34;4879360;29;19980;-71
2022/04/19 09:18:35;;;;;;;;;;;;;;;11.72;35.91;99012.25;4855125;29;20280;-69
2022/04/19 09:21:04;;;;;;;;;;;;;;;11.50;35.46;99005.72;4852479;29;19924;-70
2022/04/19 09:23:34;;;;;;;;;;;;;;;11.41;36.96;99006.72;4844519;29;20302;-69
2022/04/19 09:26:05;;;;;;;;;;;;;;;11.45;37.26;99018.59;4851436;29;19931;-70
2022/04/19 09:28:35;;;;;;;;;;;;;;;11.53;37.41;99008.25;4835817;29;19956;-70
2022/04/19 09:31:09;;;;;;;;;;;;;;;11.64;37.69;99014.03;4813048;29;19932;-69
2022/04/19 09:33:38;;;;;;;;;;;;;;;11.65;37.72;99010.63;4848697;29;19924;-70
2022/04/19 09:36:07;;;;;;;;;;;;;;;11.64;36.26;99014.03;4856578;29;19931;-70
2022/04/19 09:38:41;;;;;;;;;;;;;;;11.66;34.93;99012.28;4862287;29;19980;-69
2022/04/19 09:41:15;;;;;;;;;;;;;;;11.75;34.48;99007.09;4862727;29;19924;-70
2022/04/19 09:44:05;;;;;;;;;;;;;;;11.93;34.54;99001.66;4862486;29;19924;-70
2022/04/19 09:46:36;;;;;;;;;;;;;;;12.14;35.30;99005.53;4862339;29;19976;-69
2022/04/19 09:49:06;;;;;;;;;;;;;;;12.36;35.07;99005.97;4879179;29;19972;-69
2022/04/19 09:51:36;;;;;;;;;;;;;;;12.43;35.04;99002.47;4881131;29;19931;-69
2022/04/19 09:54:06;;;;;;;;;;;;;;;12.35;35.57;99010.28;4880759;29;19923;-69
2022/04/19 09:56:37;;;;;;;;;;;;;;;12.22;35.40;99003.69;4877735;29;20022;-69
2022/04/19 09:59:17;;;;;;;;;;;;;;;12.23;36.33;99001.97;4880962;29;19928;-69
2022/04/19 10:09:43;;;;;;;;;;;;;;;12.84;35.37;98992.22;4842346;29;19930;-69
2022/04/19 10:12:18;;;;;;;;;;;;;;;12.69;35.03;98998.50;4849477;29;19964;-71
2022/04/19 10:14:47;;;;;;;;;;;;;;;12.58;35.94;99002.16;4859102;29;20019;-70
2022/04/19 10:17:16;;;;;;;;;;;;;;;12.60;36.42;98995.28;4847279;29;19928;-70
2022/04/19 10:19:49;;;;;;;;;;;;;;;12.63;36.96;98990.09;4851354;29;19967;-70
2022/04/19 10:22:17;;;;;;;;;;;;;;;12.49;37.20;98997.22;4861781;29;19924;-69
2022/04/19 10:24:46;;;;;;;;;;;;;;;12.37;37.22;98992.34;4861778;29;19931;-69
2022/04/19 10:27:17;;;;;;;;;;;;;;;12.22;37.47;98990.06;4862030;29;20314;-69
2022/04/19 10:29:45;;;;;;;;;;;;;;;11.82;39.96;98990.78;4844114;29;20291;-68
2022/04/19 10:32:14;;;;;;;;;;;;;;;11.47;41.45;98994.72;4843782;29;19931;-69
2022/04/19 10:34:44;;;;;;;;;;;;;;;11.20;41.39;98996.84;4827888;29;19924;-69
2022/04/19 10:37:24;;;;;;;;;;;;;;;11.09;40.98;99005.47;4876891;29;19963;-68
2022/04/19 10:39:53;;;;;;;;;;;;;;;10.94;41.43;98998.06;4854550;29;19924;-68
2022/04/19 10:42:32;;;;;;;;;;;;;;;11.05;40.69;98991.94;4864792;29;19931;-69
2022/04/19 10:45:17;;;;;;;;;;;;;;;11.42;41.54;98997.38;4832271;29;20320;-69
2022/04/19 10:48:01;;;;;;;;;;;;;;;11.87;40.29;98990.69;4872785;29;19928;-69
2022/04/19 10:50:33;;;;;;;;;;;;;;;12.10;40.21;98989.41;4878359;29;19993;-70
2022/04/19 10:53:03;;;;;;;;;;;;;;;12.67;41.06;98986.59;4880132;29;20014;-69
2022/04/19 10:55:32;;;;;;;;;;;;;;;13.16;40.73;98987.28;4879821;29;19958;-69
2022/04/19 10:58:12;;;;;;;;;;;;;;;13.51;39.66;98988.22;4863505;29;20488;-70
2022/04/19 11:00:45;;;;;;;;;;;;;;;13.68;38.97;98991.19;4862762;29;20397;-69
2022/04/19 11:03:46;;;;;;;;;;;;;;;13.27;39.84;98987.88;4873283;29;19984;-71
2022/04/19 11:06:26;;;;;;;;;;;;;;;12.90;40.61;98989.53;4852556;29;19973;-68
2022/04/19 11:09:06;;;;;;;;;;;;;;;12.93;41.15;98989.50;4856399;29;19924;-69
2022/04/19 11:11:45;;;;;;;;;;;;;;;13.27;41.49;98985.31;4843279;29;20027;-70
2022/04/19 11:14:24;;;;;;;;;;;;;;;13.27;40.97;98989.59;4843079;29;19925;-68
2022/04/19 11:16:56;;;;;;;;;;;;;;;12.79;40.98;98991.47;4848613;29;20027;-69
2022/04/19 11:19:25;;;;;;;;;;;;;;;12.45;40.06;98995.59;4860252;29;19924;-69
2022/04/19 11:21:56;;;;;;;;;;;;;;;12.24;40.21;98980.66;4844014;29;19924;-69
2022/04/19 11:24:36;;;;;;;;;;;;;;;11.96;41.18;98986.25;4855164;29;19959;-68
2022/04/19 11:27:04;;;;;;;;;;;;;;;11.95;42.08;98989.69;4861705;29;20337;-68
2022/04/19 11:29:48;;;;;;;;;;;;;;;12.33;43.12;98990.72;4839645;29;19924;-69
2022/04/19 11:32:21;;;;;;;;;;;;;;;12.77;42.25;98998.34;4862787;29;20290;-69
2022/04/19 11:34:59;;;;;;;;;;;;;;;13.04;41.96;99002.03;4865659;29;19932;-68
2022/04/19 11:37:27;;;;;;;;;;;;;;;13.16;41.38;98997.53;4874686;29;20385;-68
2022/04/19 11:47:55;;;;;;;;;;;;;;;13.39;40.13;99004.69;4848390;29;20291;-70
2022/04/19 11:50:30;;;;;;;;;;;;;;;13.10;39.62;98991.72;4837351;29;19924;-70
2022/04/19 11:53:05;;;;;;;;;;;;;;;13.17;40.39;99004.34;4846013;29;19925;-70
2022/04/19 11:55:33;;;;;;;;;;;;;;;13.29;40.77;98991.25;4845828;29;19924;-70
2022/04/19 11:58:03;;;;;;;;;;;;;;;13.43;40.77;98990.94;4849582;29;19928;-69
2022/04/19 12:00:33;;;;;;;;;;;;;;;13.68;39.64;98986.06;4864220;29;19928;-69
2022/04/19 12:03:03;;;;;;;;;;;;;;;13.85;39.94;98989.06;4868446;29;19928;-68
2022/04/19 12:05:32;;;;;;;;;;;;;;;13.76;39.45;98981.59;4883671;29;20018;-69
2022/04/19 12:08:02;;;;;;;;;;;;;;;13.67;39.70;98984.41;4863452;29;19972;-69
2022/04/19 12:10:31;;;;;;;;;;;;;;;13.55;39.16;98984.69;4846759;29;20015;-69
2022/04/19 12:13:00;;;;;;;;;;;;;;;13.50;39.27;98992.50;4845863;29;20019;-69
2022/04/19 12:15:40;;;;;;;;;;;;;;;13.42;38.97;98979.84;4852269;29;20010;-69
2022/04/19 12:18:10;;;;;;;;;;;;;;;13.66;39.89;98977.56;4882582;29;19956;-69
2022/04/19 12:20:43;;;;;;;;;;;;;;;13.29;38.96;98983.56;4882783;29;20390;-68
2022/04/19 12:23:18;;;;;;;;;;;;;;;12.87;39.40;98984.47;4882475;29;20019;-69
2022/04/19 12:25:58;;;;;;;;;;;;;;;12.89;39.50;98982.72;4865965;29;19963;-69
2022/04/19 12:28:35;;;;;;;;;;;;;;;12.18;40.00;98851.16;4882392;29;19923;-70
2022/04/19 12:31:05;;;;;;;;;;;;;;;13.09;40.40;98985.75;4882410;29;20344;-69
2022/04/19 12:33:37;;;;;;;;;;;;;;;13.32;39.71;98978.38;4882240;29;19930;-69
2022/04/19 12:36:12;;;;;;;;;;;;;;;13.27;38.02;98975.06;4866127;29;19923;-69
2022/04/19 12:38:41;;;;;;;;;;;;;;;13.37;38.07;98981.66;4862240;29;19967;-69
2022/04/19 12:41:15;;;;;;;;;;;;;;;13.59;37.80;98976.03;4863483;29;20018;-70
2022/04/19 12:43:45;;;;;;;;;;;;;;;13.77;37.55;98968.72;4863461;29;20015;-69
2022/04/19 12:46:16;;;;;;;;;;;;;;;13.63;36.95;98963.09;4862931;29;20345;-70
2022/04/19 12:48:53;;;;;;;;;;;;;;;13.38;37.18;98977.41;4863818;29;19924;-70
2022/04/19 12:51:25;;;;;;;;;;;;;;;13.41;37.54;98978.16;4863630;29;20359;-69
2022/04/19 12:54:05;;;;;;;;;;;;;;;13.27;37.38;98975.06;4863420;29;20068;-71
2022/04/19 12:56:45;;;;;;;;;;;;;;;13.18;37.08;98980.41;4863540;29;19927;-69
2022/04/19 12:59:14;;;;;;;;;;;;;;;13.34;37.12;98980.91;4863653;29;19928;-70
2022/04/19 13:01:44;;;;;;;;;;;;;;;13.42;37.63;98979.00;4863211;29;19924;-68
2022/04/19 13:04:13;;;;;;;;;;;;;;;13.41;37.25;98988.41;4843343;29;19925;-69
2022/04/19 13:14:44;;;;;;;;;;;;;;;12.47;42.46;99004.09;4859937;29;19928;-69
2022/04/19 13:17:23;;;;;;;;;;;;;;;12.29;42.88;98994.19;4863266;29;19924;-69
2022/04/19 13:19:52;;;;;;;;;;;;;;;12.36;42.20;98999.16;4863099;29;20367;-70
2022/04/19 13:22:21;;;;;;;;;;;;;;;12.12;43.40;99001.34;4863101;29;19924;-68
2022/04/19 13:24:49;;;;;;;;;;;;;;;12.05;43.39;99001.44;4844718;29;19924;-70
2022/04/19 13:27:18;;;;;;;;;;;;;;;11.95;43.24;98993.94;4862949;29;20280;-68
2022/04/19 13:29:47;;;;;;;;;;;;;;;11.78;43.36;98996.78;4862658;29;19973;-68
2022/04/19 13:32:16;;;;;;;;;;;;;;;11.56;44.07;99000.53;4862994;29;20010;-68
2022/04/19 13:34:46;;;;;;;;;;;;;;;11.52;43.89;99004.00;4862576;29;19934;-71
2022/04/19 13:37:16;;;;;;;;;;;;;;;11.70;43.78;99003.75;4862076;29;19928;-70
2022/04/19 13:39:44;;;;;;;;;;;;;;;11.77;43.89;99009.59;4881383;29;20374;-68
2022/04/19 13:42:13;;;;;;;;;;;;;;;11.80;44.06;99004.44;4880954;29;19931;-70
2022/04/19 13:44:42;;;;;;;;;;;;;;;11.58;44.48;99003.91;4881327;29;19924;-70
2022/04/19 13:47:10;;;;;;;;;;;;;;;11.60;44.55;99007.28;4880929;29;19924;-70
2022/04/19 13:49:41;;;;;;;;;;;;;;;11.42;44.43;99013.50;4881350;29;20036;-70
2022/04/19 13:52:11;;;;;;;;;;;;;;;11.38;44.26;99016.13;4880761;29;19972;-69
2022/04/19 13:54:45;;;;;;;;;;;;;;;11.39;44.06;99012.72;4880864;29;20302;-67
2022/04/19 13:57:14;;;;;;;;;;;;;;;11.38;43.42;99005.91;4876231;29;19932;-69
2022/04/19 13:59:47;;;;;;;;;;;;;;;11.37;43.35;99009.34;4857379;29;19967;-69
2022/04/19 14:02:16;;;;;;;;;;;;;;;11.31;43.31;99015.38;4861746;29;19966;-69
2022/04/19 14:04:45;;;;;;;;;;;;;;;11.29;42.74;99003.50;4845699;29;20379;-69
2022/04/19 14:07:15;;;;;;;;;;;;;;;11.35;42.69;99005.94;4862664;29;19924;-69
2022/04/19 14:09:44;;;;;;;;;;;;;;;11.49;43.02;99009.19;4862319;29;19924;-70